Time;durP1;ratioP1;P1;durP2;ratioP2;P2;SDS_P1;SDS_P2;PMS_P1;PMS_P2;Temp;Humidity;BMP_temperature;BMP_pressure;BME280_temperature;BME280_humidity;BME280_pressure;Samples;Min_cycle;Max_cycle;Signal;HPM_P1;HPM_P2
2021/04/15 00:00:46;;;;;;;3.08;1.42;;;;;;;3.39;100.00;103062.63;3594980;39;20067;-60
2021/04/15 00:03:15;;;;;;;2.20;1.30;;;;;;;3.57;100.00;103076.44;3595440;39;20073;-61
2021/04/15 00:05:42;;;;;;;5.88;1.50;;;;;;;3.50;100.00;103071.25;3596198;39;20416;-64
2021/04/15 00:08:08;;;;;;;5.20;1.92;;;;;;;3.43;100.00;103074.97;3595572;39;20047;-62
2021/04/15 00:10:37;;;;;;;3.38;1.33;;;;;;;3.45;100.00;103075.81;3596132;40;20052;-60
2021/04/15 00:13:06;;;;;;;3.33;1.58;;;;;;;3.54;100.00;103074.72;3595250;39;20037;-61
2021/04/15 00:15:32;;;;;;;5.30;1.40;;;;;;;3.53;100.00;103074.75;3595689;39;20423;-64
2021/04/15 00:17:58;;;;;;;2.17;1.20;;;;;;;3.71;100.00;103069.00;3595643;39;20056;-63
2021/04/15 00:20:24;;;;;;;4.03;1.45;;;;;;;3.56;100.00;103070.22;3593963;39;20128;-61
2021/04/15 00:22:50;;;;;;;5.07;1.67;;;;;;;3.55;100.00;103070.25;3595719;39;20500;-62
2021/04/15 00:25:17;;;;;;;2.45;1.40;;;;;;;3.53;100.00;103067.63;3593966;39;20398;-64
2021/04/15 00:27:43;;;;;;;3.67;1.80;;;;;;;3.43;100.00;103064.31;3595540;39;20043;-62
2021/04/15 00:30:11;;;;;;;5.10;1.50;;;;;;;3.34;100.00;103059.19;3594556;39;20320;-61
2021/04/15 00:32:37;;;;;;;4.57;1.65;;;;;;;3.36;100.00;103048.50;3595518;39;20054;-65
2021/04/15 00:35:04;;;;;;;3.45;1.67;;;;;;;3.29;100.00;103061.97;3594956;39;20036;-61
2021/04/15 00:37:30;;;;;;;3.72;1.52;;;;;;;3.23;100.00;103047.94;3594619;39;20040;-62
2021/04/15 00:39:56;;;;;;;2.38;1.58;;;;;;;3.09;100.00;103051.78;3594973;39;20036;-61
2021/04/15 00:42:22;;;;;;;4.28;1.80;;;;;;;3.18;100.00;103052.47;3594815;40;20075;-59
2021/04/15 00:44:49;;;;;;;6.72;1.73;;;;;;;3.21;100.00;103052.41;3595535;39;20060;-61
2021/04/15 00:47:21;;;;;;;3.35;1.92;;;;;;;3.10;100.00;103044.66;3595763;40;20051;-61
2021/04/15 00:49:53;;;;;;;5.07;2.58;;;;;;;3.03;100.00;103049.22;3594342;39;20048;-60
2021/04/15 00:52:21;;;;;;;5.13;2.35;;;;;;;3.03;100.00;103041.25;3593297;39;20091;-60
2021/04/15 00:54:51;;;;;;;5.37;2.50;;;;;;;3.32;100.00;103042.41;3594835;39;20051;-60
2021/04/15 00:57:19;;;;;;;;;;;;;;;3.29;100.00;103039.81;3594735;39;20321;-60
2021/04/15 00:59:46;;;;;;;5.07;2.20;;;;;;;3.27;100.00;103038.97;3594196;39;19942;-62
2021/04/15 01:02:15;;;;;;;6.43;2.22;;;;;;;3.26;100.00;103038.09;3594638;39;20040;-60
2021/04/15 01:04:42;;;;;;;3.22;2.00;;;;;;;3.18;100.00;103029.41;3594380;39;20547;-60
2021/04/15 01:09:37;;;;;;;;;;;;;;;3.30;100.00;103036.25;3603574;22;20048;-61
2021/04/15 01:12:17;;;;;;;3.28;1.90;;;;;;;3.41;100.00;103028.00;3575973;40;20202;-62
2021/04/15 01:14:57;;;;;;;5.03;2.00;;;;;;;3.32;100.00;103029.09;3575274;40;20090;-60
2021/04/15 01:17:30;;;;;;;3.42;1.63;;;;;;;3.10;100.00;103029.56;3575376;40;20150;-61
2021/04/15 01:20:39;;;;;;;5.95;2.35;;;;;;;3.10;100.00;103029.56;3573926;40;20053;-62
2021/04/15 01:23:33;;;;;;;4.05;1.92;;;;;;;3.09;100.00;103029.59;3618342;22;20322;-62
2021/04/15 01:26:25;;;;;;;5.70;2.03;;;;;;;3.26;100.00;103030.09;3560087;40;20131;-60
2021/04/15 01:29:02;;;;;;;4.00;1.90;;;;;;;2.98;100.00;103024.53;3561817;40;20057;-63
2021/04/15 01:31:40;;;;;;;3.85;2.65;;;;;;;2.85;100.00;103028.34;3560562;40;20061;-63
2021/04/15 01:34:12;;;;;;;5.07;2.50;;;;;;;2.66;100.00;103026.06;3561733;40;20038;-62
2021/04/15 01:36:43;;;;;;;6.68;2.83;;;;;;;2.54;100.00;103023.66;3561306;40;20077;-60
2021/04/15 01:39:16;;;;;;;5.75;2.88;;;;;;;2.53;100.00;103024.56;3560613;40;20117;-62
2021/04/15 01:41:49;;;;;;;5.68;3.00;;;;;;;2.49;100.00;103017.56;3561322;40;20090;-60
2021/04/15 01:44:20;;;;;;;6.82;2.65;;;;;;;2.33;100.00;103020.53;3560660;40;20756;-64
2021/04/15 01:46:48;;;;;;;4.70;2.70;;;;;;;2.20;100.00;103024.31;3561843;40;20073;-62
2021/04/15 01:49:18;;;;;;;8.32;3.55;;;;;;;2.14;100.00;103021.78;3560646;40;20053;-62
2021/04/15 01:51:48;;;;;;;5.35;2.80;;;;;;;2.04;100.00;103029.03;3560705;40;20073;-60
2021/04/15 01:54:19;;;;;;;6.32;2.95;;;;;;;1.89;100.00;103028.41;3559822;40;20052;-60
2021/04/15 01:56:52;;;;;;;6.55;2.75;;;;;;;1.96;100.00;103023.88;3560852;40;20045;-60
2021/04/15 01:59:26;;;;;;;5.85;3.10;;;;;;;1.98;100.00;103024.69;3559959;40;20059;-60
2021/04/15 02:01:55;;;;;;;6.63;3.25;;;;;;;1.93;100.00;103021.28;3562629;40;20064;-61
2021/04/15 02:04:26;;;;;;;4.72;2.72;;;;;;;1.92;100.00;103024.81;3562529;40;20077;-60
2021/04/15 02:06:57;;;;;;;5.97;3.10;;;;;;;1.96;100.00;103021.22;3562725;40;20030;-61
2021/04/15 02:09:25;;;;;;;7.90;3.67;;;;;;;1.93;100.00;103022.13;3560619;40;20075;-60
2021/04/15 02:11:58;;;;;;;7.43;3.45;;;;;;;2.00;100.00;103016.72;3562355;40;20049;-60
2021/04/15 02:14:29;;;;;;;8.70;3.60;;;;;;;1.86;100.00;103019.63;3561972;40;20054;-63
2021/04/15 02:16:58;;;;;;;9.82;3.88;;;;;;;1.78;100.00;103017.06;3562674;40;20089;-62
2021/04/15 02:19:29;;;;;;;6.72;3.63;;;;;;;1.79;100.00;103020.63;3561223;40;20056;-61
2021/04/15 02:22:03;;;;;;;4.75;3.13;;;;;;;1.88;100.00;103025.75;3562728;40;20049;-60
2021/04/15 02:24:35;;;;;;;5.65;3.25;;;;;;;1.91;100.00;103023.94;3564107;40;20391;-61
2021/04/15 02:27:07;;;;;;;8.48;3.75;;;;;;;1.93;100.00;103022.13;3572977;40;20064;-62
2021/04/15 02:29:41;;;;;;;5.68;3.30;;;;;;;1.96;100.00;103021.22;3571246;40;20074;-62
2021/04/15 02:32:15;;;;;;;6.65;3.28;;;;;;;1.86;100.00;103014.31;3572186;40;20045;-62
2021/04/15 02:34:45;;;;;;;7.88;3.47;;;;;;;1.78;100.00;103017.06;3572571;40;20130;-62
2021/04/15 02:37:16;;;;;;;7.18;3.50;;;;;;;1.92;100.00;103014.19;3571713;40;20061;-61
2021/04/15 02:39:44;;;;;;;7.10;3.53;;;;;;;1.94;100.00;103015.03;3572044;40;20045;-60
2021/04/15 02:42:14;;;;;;;5.55;3.58;;;;;;;1.73;100.00;103014.50;3571805;40;20049;-60
2021/04/15 02:44:47;;;;;;;11.57;3.42;;;;;;;1.63;100.00;103020.84;3572662;40;20342;-60
2021/04/15 02:47:18;;;;;;;6.28;3.50;;;;;;;1.60;100.00;103018.25;3572146;40;20048;-62
2021/04/15 02:49:44;;;;;;;8.35;3.40;;;;;;;1.54;100.00;103015.72;3571796;40;20137;-61
2021/04/15 02:52:17;;;;;;;7.47;3.33;;;;;;;1.46;100.00;103022.91;3572275;40;20079;-61
2021/04/15 02:54:47;;;;;;;6.57;3.42;;;;;;;1.35;100.00;103007.16;3572054;40;20037;-62
2021/04/15 02:57:17;;;;;;;8.50;3.05;;;;;;;1.37;100.00;103022.16;3572218;40;20049;-62
2021/04/15 02:59:48;;;;;;;5.43;2.80;;;;;;;1.27;100.00;103017.03;3571856;40;20065;-60
2021/04/15 03:02:19;;;;;;;10.13;3.45;;;;;;;1.33;100.00;103019.59;3571450;40;20340;-60
2021/04/15 03:04:52;;;;;;;6.40;3.35;;;;;;;1.45;100.00;103022.03;3571998;40;20302;-60
2021/04/15 03:07:19;;;;;;;8.00;3.70;;;;;;;1.42;100.00;103013.25;3571329;40;20444;-60
2021/04/15 03:09:47;;;;;;;9.40;3.47;;;;;;;1.40;100.00;103006.19;3571507;40;20039;-62
2021/04/15 03:12:18;;;;;;;5.60;3.50;;;;;;;1.40;100.00;103015.94;3571422;40;20038;-60
2021/04/15 03:14:50;;;;;;;7.65;3.75;;;;;;;1.42;100.00;103013.25;3572234;40;20056;-61
2021/04/15 03:17:19;;;;;;;10.10;3.85;;;;;;;1.22;100.00;103022.38;3573071;40;20385;-60
2021/04/15 03:19:49;;;;;;;8.13;4.05;;;;;;;1.23;100.00;103013.53;3570137;40;20056;-62
2021/04/15 03:22:22;;;;;;;7.78;3.70;;;;;;;1.21;100.00;103020.63;3571628;40;20056;-61
2021/04/15 03:24:51;;;;;;;6.90;3.60;;;;;;;0.97;100.00;103022.75;3570377;40;20045;-60
2021/04/15 03:27:22;;;;;;;9.10;4.80;;;;;;;1.00;100.00;103027.09;3571042;40;20062;-61
2021/04/15 03:29:58;;;;;;;10.10;3.70;;;;;;;1.12;100.00;103028.72;3571564;40;20256;-60
2021/04/15 03:32:31;;;;;;;10.32;3.83;;;;;;;1.14;100.00;103021.63;3570724;40;20038;-60
2021/04/15 03:35:05;;;;;;;7.75;3.58;;;;;;;1.03;100.00;103025.31;3571505;40;20037;-60
2021/04/15 03:37:38;;;;;;;7.90;3.80;;;;;;;1.10;100.00;103022.56;3571890;40;20084;-60
2021/04/15 03:40:07;;;;;;;9.43;4.38;;;;;;;1.01;100.00;103024.44;3571363;40;20097;-62
2021/04/15 03:42:38;;;;;;;10.02;3.83;;;;;;;1.11;100.00;103035.81;3570863;40;20035;-60
2021/04/15 03:45:09;;;;;;;10.27;4.90;;;;;;;1.16;100.00;103033.06;3572179;40;20069;-61
2021/04/15 03:47:39;;;;;;;8.57;4.97;;;;;;;1.21;100.00;103036.56;3572274;40;20136;-60
2021/04/15 03:50:09;;;;;;;10.32;4.85;;;;;;;1.35;100.00;103029.25;3571018;40;20065;-60
2021/04/15 03:52:41;;;;;;;8.48;4.10;;;;;;;1.27;100.00;103023.19;3570010;40;20277;-63
2021/04/15 03:55:18;;;;;;;9.20;4.50;;;;;;;1.24;100.00;103025.91;3571838;40;20391;-62
2021/04/15 03:57:46;;;;;;;8.05;4.38;;;;;;;1.23;100.00;103035.59;3571957;40;20059;-63
2021/04/15 04:00:20;;;;;;;9.07;4.78;;;;;;;1.16;100.00;103028.66;3570128;40;20051;-61
2021/04/15 04:02:50;;;;;;;13.10;5.25;;;;;;;1.14;100.00;103032.22;3570791;40;20045;-61
2021/04/15 04:05:22;;;;;;;8.15;4.35;;;;;;;1.04;100.00;103029.69;3570849;40;20063;-64
2021/04/15 04:07:52;;;;;;;7.78;4.70;;;;;;;1.09;100.00;103031.41;3571862;40;20063;-61
2021/04/15 04:10:21;;;;;;;8.77;5.22;;;;;;;1.13;100.00;103027.81;3570079;40;20096;-62
2021/04/15 04:12:54;;;;;;;11.65;4.82;;;;;;;1.22;100.00;103033.88;3572180;40;20059;-63
2021/04/15 04:15:26;;;;;;;9.98;5.20;;;;;;;1.20;100.00;103035.66;3571001;40;20051;-61
2021/04/15 04:18:05;;;;;;;11.13;4.72;;;;;;;1.20;100.00;103030.34;3571038;40;20077;-61
2021/04/15 04:20:34;;;;;;;14.10;5.00;;;;;;;1.17;100.00;103034.84;3569366;40;20046;-64
2021/04/15 04:23:09;;;;;;;7.72;4.30;;;;;;;1.22;100.00;103044.50;3571468;40;20106;-64
2021/04/15 04:25:41;;;;;;;9.38;4.45;;;;;;;1.22;100.00;103041.84;3571122;40;20311;-65
2021/04/15 04:28:12;;;;;;;10.57;4.70;;;;;;;1.32;100.00;103045.22;3572483;40;20303;-64
2021/04/15 04:30:45;;;;;;;7.30;4.40;;;;;;;1.35;100.00;103045.16;3570171;40;20033;-65
2021/04/15 04:33:15;;;;;;;10.50;4.30;;;;;;;1.34;100.00;103048.75;3571892;40;20063;-62
2021/04/15 04:35:45;;;;;;;8.13;4.55;;;;;;;1.30;100.00;103049.69;3571180;40;20071;-61
2021/04/15 04:38:13;;;;;;;7.45;4.32;;;;;;;1.28;100.00;103047.94;3571137;40;20126;-62
2021/04/15 04:40:42;;;;;;;8.50;4.45;;;;;;;1.17;100.00;103051.63;3571453;40;20045;-61
2021/04/15 04:43:12;;;;;;;8.88;4.43;;;;;;;1.02;100.00;103050.06;3570740;40;20045;-61
2021/04/15 04:45:39;;;;;;;7.93;4.65;;;;;;;0.83;100.00;103051.19;3571299;40;20049;-61
2021/04/15 04:48:11;;;;;;;9.40;4.65;;;;;;;0.65;100.00;103052.31;3569415;40;20047;-62
2021/04/15 04:50:43;;;;;;;8.95;4.63;;;;;;;0.65;100.00;103049.66;3570149;40;20393;-61
2021/04/15 04:53:13;;;;;;;9.13;4.78;;;;;;;0.53;100.00;103045.38;3570325;40;20057;-62
2021/04/15 04:55:44;;;;;;;9.55;5.22;;;;;;;0.62;100.00;103054.97;3571891;40;20033;-61
2021/04/15 04:58:13;;;;;;;10.02;4.90;;;;;;;0.59;100.00;103047.94;3570887;40;20037;-64
2021/04/15 05:00:45;;;;;;;11.47;5.60;;;;;;;0.66;100.00;103049.63;3570649;40;20491;-61
2021/04/15 05:03:17;;;;;;;12.52;5.05;;;;;;;0.55;100.00;103051.53;3569894;40;20049;-64
2021/04/15 05:05:43;;;;;;;10.43;4.90;;;;;;;0.49;100.00;103048.94;3571653;40;20033;-61
2021/04/15 05:08:15;;;;;;;15.30;7.00;;;;;;;0.50;100.00;103059.53;3571121;40;20045;-63
2021/04/15 05:10:41;;;;;;;9.60;5.97;;;;;;;0.48;100.00;103057.78;3570187;40;20064;-64
2021/04/15 05:13:14;;;;;;;9.65;5.68;;;;;;;0.42;100.00;103065.81;3571220;40;20049;-64
2021/04/15 05:15:42;;;;;;;9.75;4.57;;;;;;;0.40;100.00;103059.63;3570478;40;20049;-61
2021/04/15 05:18:11;;;;;;;10.75;5.47;;;;;;;0.40;100.00;103071.13;3570223;40;20108;-62
2021/04/15 05:20:38;;;;;;;8.52;4.78;;;;;;;0.39;100.00;103073.78;3570151;40;20041;-61
2021/04/15 05:23:11;;;;;;;10.82;5.22;;;;;;;0.40;100.00;103072.88;3571753;40;20166;-62
2021/04/15 05:25:43;;;;;;;9.60;4.97;;;;;;;0.41;100.00;103066.69;3569535;40;20045;-61
2021/04/15 05:28:14;;;;;;;10.68;5.00;;;;;;;0.41;100.00;103074.63;3570521;40;20057;-62
2021/04/15 05:30:44;;;;;;;11.40;5.00;;;;;;;0.46;100.00;103083.44;3570449;40;20071;-64
2021/04/15 05:33:15;;;;;;;12.57;5.90;;;;;;;0.54;100.00;103081.56;3570746;40;20049;-63
2021/04/15 05:35:45;;;;;;;8.93;5.22;;;;;;;0.57;100.00;103092.13;3571913;40;20061;-64
2021/04/15 05:38:13;;;;;;;10.52;4.95;;;;;;;0.72;100.00;103090.19;3573078;40;20082;-62
2021/04/15 05:40:40;;;;;;;9.25;4.78;;;;;;;0.90;100.00;103095.31;3572482;40;20142;-64
2021/04/15 05:45:36;;;;;;;10.80;4.90;;;;;;;1.23;100.00;103099.28;3610950;22;20836;-61
2021/04/15 05:48:05;;;;;;;9.93;4.97;;;;;;;1.28;100.00;103099.25;3576005;40;20048;-62
2021/04/15 05:50:35;;;;;;;8.85;4.80;;;;;;;1.36;100.00;103105.31;3575410;40;20306;-61
2021/04/15 05:53:03;;;;;;;;;;;;;;;1.37;100.00;103104.41;3576116;40;20311;-61
2021/04/15 05:55:34;;;;;;;6.47;4.45;;;;;;;1.48;100.00;103109.56;3574984;40;19943;-61
2021/04/15 05:58:04;;;;;;;10.48;4.93;;;;;;;1.98;100.00;103104.38;3576080;40;20061;-63
2021/04/15 06:00:37;;;;;;;7.63;4.13;;;;;;;3.27;100.00;103106.38;3575054;40;20311;-63
2021/04/15 06:03:13;;;;;;;8.10;4.30;;;;;;;3.82;100.00;103111.34;3576516;40;20477;-64
2021/04/15 06:05:48;;;;;;;6.68;3.67;;;;;;;4.47;100.00;103107.91;3577232;40;20059;-64
2021/04/15 06:08:14;;;;;;;6.25;3.25;;;;;;;4.36;100.00;103110.03;3576871;40;20049;-63
2021/04/15 06:10:41;;;;;;;9.35;3.90;;;;;;;3.81;100.00;103107.81;3576878;40;20086;-64
2021/04/15 06:13:15;;;;;;;6.10;3.80;;;;;;;3.75;100.00;103115.06;3574650;40;20041;-62
2021/04/15 06:15:46;;;;;;;8.23;3.78;;;;;;;3.60;100.00;103117.19;3571043;40;20052;-61
2021/04/15 06:18:21;;;;;;;7.00;3.55;;;;;;;3.46;100.00;103112.19;3572642;40;20044;-61
2021/04/15 06:20:57;;;;;;;7.93;3.80;;;;;;;3.62;100.00;103115.38;3574335;40;20407;-61
2021/04/15 06:23:27;;;;;;;7.93;4.63;;;;;;;3.72;100.00;103118.66;3575747;40;20053;-61
2021/04/15 06:25:55;;;;;;;6.70;3.78;;;;;;;3.67;100.00;103115.25;3577121;40;20166;-61
2021/04/15 06:28:24;;;;;;;6.63;3.95;;;;;;;3.29;100.00;103120.50;3576092;40;20081;-61
2021/04/15 06:31:11;;;;;;;10.80;4.63;;;;;;;3.22;100.00;103118.03;3576237;40;20064;-58
2021/04/15 06:33:38;;;;;;;9.45;4.55;;;;;;;3.26;100.00;103131.22;3575713;40;20127;-60
2021/04/15 06:36:10;;;;;;;9.80;4.85;;;;;;;3.18;100.00;103126.97;3575894;40;20033;-61
2021/04/15 06:38:43;;;;;;;7.22;4.53;;;;;;;3.45;100.00;103133.50;3575881;40;20053;-60
2021/04/15 06:41:37;;;;;;;8.55;4.95;;;;;;;3.30;100.00;103132.06;3576220;40;20068;-60
2021/04/15 06:44:22;;;;;;;8.45;4.93;;;;;;;3.28;100.00;103132.09;3562210;40;20057;-61
2021/04/15 06:47:22;;;;;;;9.82;5.05;;;;;;;3.39;100.00;103136.31;3575581;40;20502;-63
2021/04/15 06:50:01;;;;;;;10.73;4.95;;;;;;;3.51;100.00;103136.03;3575747;40;20045;-61
2021/04/15 06:52:36;;;;;;;8.82;5.15;;;;;;;3.57;100.00;103141.22;3576142;40;20053;-60
2021/04/15 06:55:18;;;;;;;10.65;4.57;;;;;;;3.71;100.00;103137.34;3575820;40;20396;-63
2021/04/15 06:58:07;;;;;;;6.55;4.50;;;;;;;3.63;100.00;103135.75;3575021;40;20048;-61
2021/04/15 07:00:57;;;;;;;10.38;4.63;;;;;;;3.44;100.00;103145.91;3576612;40;20053;-63
2021/04/15 07:03:43;;;;;;;8.27;4.75;;;;;;;3.38;100.00;103140.75;3576697;40;20075;-61
2021/04/15 07:06:14;;;;;;;7.50;5.20;;;;;;;3.30;100.00;103140.91;3575901;40;20366;-61
2021/04/15 07:08:58;;;;;;;6.97;4.80;;;;;;;3.48;100.00;103147.63;3575314;40;20070;-61
2021/04/15 07:11:42;;;;;;;6.75;4.68;;;;;;;3.28;100.00;103141.84;3574180;40;20045;-61
2021/04/15 07:14:27;;;;;;;7.35;5.35;;;;;;;3.36;100.00;103147.91;3576280;40;20063;-61
2021/04/15 07:17:15;;;;;;;6.65;4.50;;;;;;;3.41;100.00;103151.31;3572047;40;20051;-61
2021/04/15 07:20:41;;;;;;;7.05;5.28;;;;;;;3.23;100.00;103151.72;3574271;40;20068;-61
2021/04/15 07:23:39;;;;;;;8.32;5.30;;;;;;;3.39;100.00;103153.16;3520576;40;20046;-61
2021/04/15 07:26:30;;;;;;;7.47;5.43;;;;;;;3.38;100.00;103151.38;3539922;40;20487;-61
2021/04/15 07:29:14;;;;;;;8.98;6.30;;;;;;;3.55;100.00;103158.13;3576798;40;20051;-61
2021/04/15 07:32:11;;;;;;;10.20;5.80;;;;;;;3.66;100.00;103150.78;3575590;40;20099;-61
2021/04/15 07:34:59;;;;;;;7.70;5.55;;;;;;;3.82;100.00;103157.50;3574674;40;20068;-62
2021/04/15 07:38:10;;;;;;;9.10;5.72;;;;;;;3.78;100.00;103158.47;3574714;40;20076;-61
2021/04/15 07:40:59;;;;;;;9.32;5.65;;;;;;;3.91;100.00;103160.88;3548173;40;20510;-61
2021/04/15 07:43:41;;;;;;;6.60;5.03;;;;;;;3.92;100.00;103163.50;3573995;40;20092;-61
2021/04/15 07:46:14;;;;;;;7.70;5.35;;;;;;;4.02;100.00;103166.84;3573312;40;20049;-61
2021/04/15 07:49:07;;;;;;;7.63;5.38;;;;;;;4.20;100.00;103163.72;3572721;40;20045;-61
2021/04/15 07:51:47;;;;;;;8.48;5.20;;;;;;;4.05;100.00;103166.75;3573175;40;20053;-61
2021/04/15 07:54:34;;;;;;;9.70;6.38;;;;;;;4.27;100.00;103168.88;3572374;40;20335;-62
2021/04/15 07:57:37;;;;;;;8.82;5.47;;;;;;;4.39;100.00;103171.25;3572711;40;20048;-64
2021/04/15 08:00:29;;;;;;;7.70;4.97;;;;;;;4.58;100.00;103174.31;3573227;40;20080;-62
2021/04/15 08:03:15;;;;;;;7.78;5.32;;;;;;;4.83;100.00;103166.53;3553497;40;20093;-62
2021/04/15 08:06:04;;;;;;;7.90;5.22;;;;;;;4.97;100.00;103171.47;3573978;40;20993;-64
2021/04/15 08:08:56;;;;;;;7.57;4.35;;;;;;;4.99;100.00;103161.66;3573727;40;20059;-63
2021/04/15 08:11:41;;;;;;;6.75;4.60;;;;;;;5.34;100.00;103159.75;3574084;40;20061;-64
2021/04/15 08:14:38;;;;;;;6.90;4.60;;;;;;;5.60;100.00;103166.97;3575776;40;20029;-65
2021/04/15 08:17:20;;;;;;;6.35;4.88;;;;;;;5.61;100.00;103167.88;3575970;40;20125;-63
2021/04/15 08:20:22;;;;;;;6.95;4.63;;;;;;;5.63;100.00;103182.03;3575797;40;20036;-63
2021/04/15 08:23:21;;;;;;;7.40;4.57;;;;;;;5.86;100.00;103175.09;3560497;40;20041;-63
2021/04/15 08:26:04;;;;;;;5.80;4.38;;;;;;;6.04;100.00;103181.72;3575667;40;20062;-65
2021/04/15 08:28:43;;;;;;;6.47;4.32;;;;;;;5.96;100.00;103180.13;3574734;40;20049;-65
2021/04/15 08:31:23;;;;;;;8.20;4.43;;;;;;;5.72;100.00;103181.75;3574258;40;20059;-64
2021/04/15 08:34:01;;;;;;;5.55;4.20;;;;;;;5.88;100.00;103175.94;3574961;40;20048;-63
2021/04/15 08:36:59;;;;;;;6.47;4.25;;;;;;;5.53;100.00;103186.78;3573699;40;20045;-62
2021/04/15 08:39:33;;;;;;;6.00;4.13;;;;;;;5.40;100.00;103180.06;3565734;40;20053;-64
2021/04/15 08:42:11;;;;;;;5.47;4.38;;;;;;;5.51;100.00;103183.28;3575940;40;20055;-64
2021/04/15 08:44:53;;;;;;;6.50;4.10;;;;;;;5.83;100.00;103175.19;3575364;40;20052;-63
2021/04/15 08:47:41;;;;;;;4.78;3.67;;;;;;;5.95;100.00;103181.03;3574218;40;20055;-63
2021/04/15 08:50:18;;;;;;;5.10;3.58;;;;;;;5.85;100.00;103184.06;3572186;40;20055;-64
2021/04/15 08:52:46;;;;;;;6.03;3.80;;;;;;;5.74;100.00;103192.41;3573252;40;20074;-65
2021/04/15 08:55:28;;;;;;;4.88;3.38;;;;;;;6.04;100.00;103187.06;3573416;40;20057;-63
2021/04/15 08:58:06;;;;;;;4.00;2.88;;;;;;;6.41;100.00;103188.53;3574177;40;20041;-63
2021/04/15 09:00:39;;;;;;;4.05;3.13;;;;;;;6.15;100.00;103179.56;3573981;40;20088;-63
2021/04/15 09:03:20;;;;;;;5.20;3.13;;;;;;;6.17;100.00;103176.81;3573803;40;20061;-64
2021/04/15 09:06:15;;;;;;;7.25;3.50;;;;;;;6.02;100.00;103178.19;3573586;40;20057;-65
2021/04/15 09:08:56;;;;;;;5.75;3.30;;;;;;;6.39;100.00;103185.00;3574891;40;20060;-67
2021/04/15 09:11:33;;;;;;;5.50;3.47;;;;;;;6.32;100.00;103185.22;3576553;40;20106;-63
2021/04/15 09:14:05;;;;;;;6.70;3.83;;;;;;;6.50;100.00;103177.50;3578137;40;20144;-62
2021/04/15 09:16:36;;;;;;;6.75;4.63;;;;;;;6.38;100.00;103183.28;3577016;40;20045;-62
2021/04/15 09:22:27;;;;;;;;;;;;;;;6.25;100.00;103181.00;3627483;22;20072;-63
2021/04/15 09:25:01;;;;;;;5.72;3.78;;;;;;;5.91;100.00;103179.38;3582661;40;19933;-62
2021/04/15 09:27:45;;;;;;;5.25;3.65;;;;;;;6.31;100.00;103180.78;3584963;40;20761;-63
2021/04/15 09:30:40;;;;;;;6.47;3.63;;;;;;;6.32;100.00;103176.34;3586464;40;20339;-62
2021/04/15 09:33:13;;;;;;;7.13;3.50;;;;;;;6.41;100.00;103172.47;3572502;40;20097;-62
2021/04/15 09:36:01;;;;;;;4.25;3.22;;;;;;;6.37;100.00;103173.50;3587997;40;20355;-63
2021/04/15 09:39:01;;;;;;;5.57;2.70;;;;;;;6.98;100.00;103174.03;3586982;40;20064;-63
2021/04/15 09:41:47;;;;;;;5.15;2.50;;;;;;;6.97;100.00;103169.59;3586772;40;20047;-63
2021/04/15 09:44:29;;;;;;;5.40;2.22;;;;;;;6.69;100.00;103169.72;3586323;40;20048;-63
2021/04/15 09:47:03;;;;;;;4.90;2.30;;;;;;;6.73;100.00;103171.38;3587735;40;20049;-63
2021/04/15 09:49:43;;;;;;;4.13;2.28;;;;;;;6.77;100.00;103172.13;3585882;40;20142;-62
2021/04/15 09:52:37;;;;;;;3.55;2.10;;;;;;;6.66;100.00;103168.00;3586221;40;20122;-63
2021/04/15 09:55:22;;;;;;;5.72;2.40;;;;;;;6.60;100.00;103170.91;3586063;40;20052;-63
2021/04/15 09:57:58;;;;;;;10.18;2.92;;;;;;;6.75;100.00;103174.84;3586459;40;20053;-63
2021/04/15 10:00:28;;;;;;;6.65;2.47;;;;;;;7.05;100.00;103171.13;3586998;40;20076;-65
2021/04/15 10:03:13;;;;;;;3.97;2.40;;;;;;;7.74;100.00;103170.31;3586887;40;20063;-62
2021/04/15 10:05:56;;;;;;;8.23;2.58;;;;;;;7.71;100.00;103171.28;3586610;40;20045;-61
2021/04/15 10:08:36;;;;;;;4.43;2.70;;;;;;;7.61;100.00;103164.56;3586599;40;20093;-62
2021/04/15 10:11:11;;;;;;;5.15;2.20;;;;;;;7.45;100.00;103158.91;3587988;40;20346;-65
2021/04/15 10:14:06;;;;;;;3.90;2.38;;;;;;;7.35;100.00;103161.09;3587958;40;20082;-65
2021/04/15 10:16:41;;;;;;;4.32;2.60;;;;;;;7.54;100.00;103161.25;3587555;40;20040;-63
2021/04/15 10:19:54;;;;;;;6.25;2.28;;;;;;;7.46;100.00;103166.03;3587033;40;20413;-64
2021/04/15 10:22:34;;;;;;;3.47;2.08;;;;;;;7.48;100.00;103162.34;3583572;40;20033;-63
2021/04/15 10:25:06;;;;;;;6.45;2.28;;;;;;;7.56;100.00;103156.69;3583942;40;20098;-65
2021/04/15 10:27:54;;;;;;;3.65;2.22;;;;;;;7.50;100.00;103157.81;3582150;40;20056;-63
2021/04/15 10:30:59;;;;;;;4.30;2.00;;;;;;;7.90;100.00;103160.72;3581155;40;20048;-64
2021/04/15 10:34:00;;;;;;;6.13;2.90;;;;;;;8.21;100.00;103154.09;3582530;40;20048;-64
2021/04/15 10:36:50;;;;;;;5.93;2.10;;;;;;;8.27;100.00;103159.19;3584839;40;20562;-63
2021/04/15 10:39:34;;;;;;;5.28;2.28;;;;;;;8.20;100.00;103155.00;3584306;40;20051;-64
2021/04/15 10:42:34;;;;;;;7.60;2.20;;;;;;;7.99;100.00;103154.97;3585307;40;20140;-67
2021/04/15 10:45:20;;;;;;;4.25;2.38;;;;;;;8.22;100.00;103153.16;3633921;22;20065;-63
2021/04/15 10:48:02;;;;;;;5.85;2.28;;;;;;;8.22;100.00;103155.84;3595078;39;20044;-66
2021/04/15 10:50:38;;;;;;;3.22;2.20;;;;;;;7.99;100.00;103148.75;3594345;40;20059;-64
2021/04/15 10:53:12;;;;;;;4.63;2.35;;;;;;;7.92;100.00;103148.13;3594780;40;20044;-67
2021/04/15 10:55:43;;;;;;;4.75;2.08;;;;;;;7.94;100.00;103145.38;3594075;39;20040;-63
2021/04/15 10:58:38;;;;;;;6.28;2.33;;;;;;;8.05;100.00;103149.38;3595460;40;20347;-63
2021/04/15 11:01:22;;;;;;;6.07;2.53;;;;;;;8.20;100.00;103153.22;3576175;39;20054;-63
2021/04/15 11:03:49;;;;;;;5.82;2.75;;;;;;;8.39;100.00;103139.91;3590898;39;20080;-64
2021/04/15 11:06:34;;;;;;;7.18;2.33;;;;;;;8.19;100.00;103139.88;3593645;40;20055;-64
2021/04/15 11:09:21;;;;;;;5.03;2.90;;;;;;;8.16;100.00;103143.56;3594895;39;20044;-63
2021/04/15 11:11:54;;;;;;;6.65;2.38;;;;;;;8.38;100.00;103140.84;3595706;40;20051;-64
2021/04/15 11:14:20;;;;;;;4.57;2.15;;;;;;;8.25;98.11;103128.88;3595654;39;20062;-63
2021/04/15 11:16:49;;;;;;;6.05;2.30;;;;;;;8.37;93.45;103132.84;3590806;40;20058;-63
2021/04/15 11:19:16;;;;;;;5.72;2.10;;;;;;;8.52;96.42;103126.84;3594944;39;20055;-67
2021/04/15 11:21:44;;;;;;;8.25;2.15;;;;;;;8.69;96.20;103128.81;3595384;40;20050;-63
2021/04/15 11:24:25;;;;;;;6.40;2.45;;;;;;;8.69;91.35;103128.81;3594435;40;20052;-64
2021/04/15 11:26:51;;;;;;;5.03;1.80;;;;;;;9.10;83.29;103112.63;3593399;39;20051;-65
2021/04/15 11:29:23;;;;;;;3.17;2.03;;;;;;;9.90;82.54;103112.44;3594194;39;20403;-63
2021/04/15 11:31:49;;;;;;;4.93;2.20;;;;;;;9.97;80.67;103114.75;3594887;39;20302;-64
2021/04/15 11:34:22;;;;;;;4.32;1.70;;;;;;;9.50;78.25;103109.88;3593517;40;20044;-64
2021/04/15 11:37:00;;;;;;;5.20;2.00;;;;;;;9.19;78.43;103110.47;3594927;39;20071;-65
2021/04/15 11:39:29;;;;;;;3.70;1.85;;;;;;;8.97;76.94;103105.22;3593379;39;20096;-65
2021/04/15 11:41:59;;;;;;;5.07;1.98;;;;;;;8.82;77.05;103112.13;3594547;39;20375;-64
2021/04/15 11:44:39;;;;;;;3.78;1.70;;;;;;;8.93;76.25;103099.09;3594662;39;20125;-63
2021/04/15 11:47:12;;;;;;;4.90;1.90;;;;;;;8.82;79.63;103106.75;3594888;40;20076;-64
2021/04/15 11:49:42;;;;;;;4.53;1.90;;;;;;;9.57;82.63;103102.38;3593630;39;20430;-66
2021/04/15 11:52:27;;;;;;;6.70;1.40;;;;;;;10.24;74.28;103099.97;3594160;39;20051;-63
2021/04/15 11:55:14;;;;;;;5.78;1.70;;;;;;;10.08;72.76;103094.50;3594612;40;20046;-65
2021/04/15 11:57:51;;;;;;;5.28;1.80;;;;;;;9.43;70.01;103105.75;3595428;39;20129;-63
2021/04/15 12:00:21;;;;;;;3.42;1.73;;;;;;;9.53;66.88;103098.13;3596082;39;20063;-63
2021/04/15 12:03:00;;;;;;;5.47;2.10;;;;;;;9.33;72.67;103107.97;3592278;40;20055;-63
2021/04/15 12:05:30;;;;;;;5.32;2.10;;;;;;;9.04;72.85;103098.59;3594943;39;20060;-64
2021/04/15 12:08:01;;;;;;;5.68;1.90;;;;;;;9.32;73.17;103100.88;3596753;39;20403;-63
2021/04/15 12:10:36;;;;;;;7.28;1.95;;;;;;;9.36;69.92;103102.47;3596239;39;20048;-66
2021/04/15 12:13:05;;;;;;;4.60;1.88;;;;;;;10.03;66.43;103081.28;3594606;39;20313;-65
2021/04/15 12:15:36;;;;;;;6.20;2.10;;;;;;;10.68;65.67;103083.34;3594268;40;20044;-64